Upernavik, Greenland
Current Conditions -  °F | °C
As of 11:50 AM on Thursday 23 Oct 2014 (Local Time) from BGJN Reporting Station
Broken Clouds Broken Clouds  
Wind Chill: 13°   Ceiling: 10000
Heat Index: 27°   Visibility: 6mi
Dew Point:   Wind: 20mph
Humidity: 43%   Direction: 100°E
Pressure: 29.47"   Gusts: NA
Location:  72.79°N, 56.15°W
Report Text: BGJN 231350Z 10017KT 9999 FEW060 BKN100 BKN180 M03/M14 Q0998
Loading
Personal Weather Stations






























Interactive Weather Map
Tropical Storm Tracking
New forecast layout! Learn more

10-Day Weather Forecast

Advertisements
Track Severe Weather on mobile